createdAt,value
2017-03-14T00:00:18.417Z,0
2017-03-14T00:01:28.339Z,0
2017-03-14T00:02:38.640Z,0
2017-03-14T00:03:48.975Z,0
2017-03-14T00:04:59.137Z,0
2017-03-14T00:06:09.415Z,0
2017-03-14T00:07:19.278Z,0
2017-03-14T00:08:29.524Z,0
2017-03-14T00:09:39.790Z,0
2017-03-14T00:10:50.334Z,0
2017-03-14T00:12:00.609Z,0
2017-03-14T00:13:10.940Z,0
2017-03-14T00:14:20.832Z,0
2017-03-14T00:15:30.735Z,0
2017-03-14T00:16:41.343Z,0
2017-03-14T00:17:51.643Z,0
2017-03-14T00:19:01.906Z,0
2017-03-14T00:20:11.757Z,0
2017-03-14T00:21:22.008Z,0
2017-03-14T00:22:32.788Z,0
2017-03-14T00:23:43.056Z,0
2017-03-14T00:24:52.920Z,0
2017-03-14T00:26:03.209Z,0
2017-03-14T00:27:13.180Z,0
2017-03-14T00:28:23.552Z,0
2017-03-14T00:29:33.868Z,0
2017-03-14T00:30:43.777Z,0
2017-03-14T00:31:53.618Z,0
2017-03-14T00:33:03.871Z,0
2017-03-14T00:34:14.420Z,0
2017-03-14T00:35:24.769Z,0
2017-03-14T00:36:34.613Z,0
2017-03-14T00:37:44.903Z,0
2017-03-14T00:38:55.201Z,0
2017-03-14T00:40:05.769Z,0
2017-03-14T00:41:16.020Z,0
2017-03-14T00:42:26.279Z,0
2017-03-14T00:43:36.586Z,0
2017-03-14T00:44:46.833Z,0
2017-03-14T00:45:57.432Z,0
2017-03-14T00:47:07.708Z,0
2017-03-14T00:48:18.000Z,0
2017-03-14T00:49:28.264Z,0
2017-03-14T00:50:38.535Z,0
2017-03-14T00:51:49.075Z,0
2017-03-14T00:52:59.527Z,0
2017-03-14T00:54:09.817Z,0
2017-03-14T00:55:20.067Z,0
2017-03-14T00:56:30.322Z,0
2017-03-14T00:57:40.871Z,0
2017-03-14T00:58:51.151Z,0
2017-03-14T01:00:01.125Z,0
2017-03-14T01:01:11.372Z,0
2017-03-14T01:02:21.664Z,0
2017-03-14T01:03:32.230Z,0
2017-03-14T01:04:42.482Z,0
2017-03-14T01:05:52.741Z,0
2017-03-14T01:07:03.093Z,0
2017-03-14T01:08:12.959Z,0
2017-03-14T01:09:23.467Z,0
2017-03-14T01:10:32.543Z,0
2017-03-14T01:11:42.851Z,0
2017-03-14T01:12:53.144Z,0
2017-03-14T01:14:03.433Z,0
2017-03-14T01:15:14.074Z,0
2017-03-14T01:16:24.364Z,0
2017-03-14T01:17:34.221Z,0
2017-03-14T01:18:44.517Z,0
2017-03-14T01:19:54.802Z,0
2017-03-14T01:21:05.414Z,0
2017-03-14T01:22:15.766Z,0
2017-03-14T01:23:26.112Z,0
2017-03-14T01:24:36.445Z,0
2017-03-14T01:25:46.364Z,0
2017-03-14T01:26:56.466Z,0
2017-03-14T01:28:06.702Z,0
2017-03-14T01:29:16.940Z,0
2017-03-14T01:30:27.213Z,0
2017-03-14T01:31:37.474Z,0
2017-03-14T01:32:48.004Z,0
2017-03-14T01:33:58.267Z,0
2017-03-14T01:35:08.560Z,0
2017-03-14T01:36:18.823Z,0
2017-03-14T01:37:29.160Z,0
2017-03-14T01:38:39.276Z,0
2017-03-14T01:39:49.571Z,0
2017-03-14T01:40:59.426Z,0
2017-03-14T01:42:09.748Z,0
2017-03-14T01:43:19.988Z,0
2017-03-14T01:44:30.561Z,0
2017-03-14T01:45:40.436Z,0
2017-03-14T01:46:50.687Z,0
2017-03-14T01:48:00.538Z,0
2017-03-14T01:49:10.822Z,0
2017-03-14T01:50:21.347Z,0
2017-03-14T01:51:31.631Z,0
2017-03-14T01:52:41.923Z,0
2017-03-14T01:53:51.776Z,0
2017-03-14T01:55:01.780Z,0
2017-03-14T01:56:12.467Z,0
2017-03-14T01:57:22.311Z,0
2017-03-14T01:58:32.308Z,0
2017-03-14T01:59:42.273Z,0
2017-03-14T02:00:52.630Z,0
2017-03-14T02:02:03.219Z,0
2017-03-14T02:03:13.113Z,0
2017-03-14T02:04:23.395Z,0
2017-03-14T02:05:33.234Z,0
2017-03-14T02:06:43.085Z,0
2017-03-14T02:07:53.626Z,0
2017-03-14T02:09:03.930Z,0
2017-03-14T02:10:14.169Z,0
2017-03-14T02:11:24.422Z,0
2017-03-14T02:12:34.675Z,0
2017-03-14T02:13:45.191Z,0
2017-03-14T02:14:55.472Z,0
2017-03-14T02:16:05.746Z,0
2017-03-14T02:17:15.988Z,0
2017-03-14T02:18:25.835Z,0
2017-03-14T02:19:36.512Z,0
2017-03-14T02:20:46.380Z,0
2017-03-14T02:21:56.782Z,0
2017-03-14T02:23:07.088Z,0
2017-03-14T02:24:17.416Z,0
2017-03-14T02:25:27.938Z,0
2017-03-14T02:26:38.185Z,0
2017-03-14T02:27:48.448Z,0
2017-03-14T02:28:58.001Z,0
2017-03-14T02:30:08.249Z,0
2017-03-14T02:31:18.790Z,0
2017-03-14T02:32:29.148Z,0
2017-03-14T02:33:39.418Z,0
2017-03-14T02:34:49.314Z,0
2017-03-14T02:35:59.607Z,0
2017-03-14T02:37:09.766Z,0
2017-03-14T02:38:20.014Z,0
2017-03-14T02:39:30.257Z,0
2017-03-14T02:40:40.539Z,0
2017-03-14T02:41:50.875Z,0
2017-03-14T02:43:01.466Z,0
2017-03-14T02:44:11.345Z,0
2017-03-14T02:45:21.608Z,0
2017-03-14T02:46:31.453Z,0
2017-03-14T02:47:41.302Z,0
2017-03-14T02:48:51.882Z,0
2017-03-14T02:50:02.144Z,0
2017-03-14T02:51:12.420Z,0
2017-03-14T02:52:22.731Z,0
2017-03-14T02:53:33.041Z,0
2017-03-14T02:54:43.540Z,0
2017-03-14T02:55:53.812Z,0
2017-03-14T02:57:04.299Z,0
2017-03-14T02:58:14.577Z,0
2017-03-14T02:59:24.452Z,0
2017-03-14T03:00:34.938Z,0
2017-03-14T03:01:45.217Z,0
2017-03-14T03:02:55.518Z,0
2017-03-14T03:04:05.390Z,0
2017-03-14T03:05:15.667Z,0
2017-03-14T03:06:26.214Z,0
2017-03-14T03:07:36.474Z,0
2017-03-14T03:08:46.791Z,0
2017-03-14T03:09:57.069Z,0
2017-03-14T03:11:07.404Z,0
2017-03-14T03:12:17.604Z,0
2017-03-14T03:13:27.451Z,0
2017-03-14T03:14:37.789Z,0
2017-03-14T03:15:48.096Z,0
2017-03-14T03:16:58.428Z,0
2017-03-14T03:18:08.594Z,0
2017-03-14T03:19:18.922Z,0
2017-03-14T03:20:29.220Z,0
2017-03-14T03:21:39.713Z,0
2017-03-14T03:22:49.997Z,0
2017-03-14T03:24:00.511Z,0
2017-03-14T03:25:10.790Z,0
2017-03-14T03:26:21.102Z,0
2017-03-14T03:27:31.339Z,0
2017-03-14T03:28:41.592Z,0
2017-03-14T03:29:51.899Z,0
2017-03-14T03:31:02.191Z,0
2017-03-14T03:32:12.681Z,0
2017-03-14T03:33:22.655Z,0
2017-03-14T03:34:32.931Z,0
2017-03-14T03:35:43.036Z,0
2017-03-14T03:36:53.447Z,0
2017-03-14T03:38:03.538Z,0
2017-03-14T03:39:13.830Z,0
2017-03-14T03:40:24.234Z,0
2017-03-14T03:41:34.737Z,0
2017-03-14T03:42:45.013Z,0
2017-03-14T03:43:55.385Z,0
2017-03-14T03:45:05.653Z,0
2017-03-14T03:46:15.897Z,0
2017-03-14T03:47:26.529Z,0
2017-03-14T03:48:36.807Z,0
2017-03-14T03:49:47.139Z,0
2017-03-14T03:50:57.445Z,0
2017-03-14T03:52:07.693Z,0
2017-03-14T03:53:17.805Z,0
2017-03-14T03:54:27.672Z,0
2017-03-14T03:55:38.011Z,0
2017-03-14T03:56:47.936Z,0
2017-03-14T03:57:58.206Z,0
2017-03-14T03:59:08.781Z,0
2017-03-14T04:00:19.079Z,0
2017-03-14T04:01:29.494Z,0
2017-03-14T04:02:39.863Z,0
2017-03-14T04:03:50.202Z,0
2017-03-14T04:05:00.722Z,0
2017-03-14T04:06:10.984Z,0
2017-03-14T04:07:21.350Z,0
2017-03-14T04:08:31.221Z,0
2017-03-14T04:09:41.470Z,0
2017-03-14T04:10:52.070Z,0
2017-03-14T04:12:02.651Z,0
2017-03-14T04:13:12.953Z,0
2017-03-14T04:14:23.247Z,0
2017-03-14T04:15:33.523Z,0
2017-03-14T04:16:43.654Z,0
2017-03-14T04:17:53.915Z,0
2017-03-14T04:19:04.231Z,0
2017-03-14T04:20:14.584Z,0
2017-03-14T04:21:24.445Z,0
2017-03-14T04:22:34.949Z,0
2017-03-14T04:23:44.813Z,0
2017-03-14T04:24:55.083Z,0
2017-03-14T04:26:05.338Z,0
2017-03-14T04:27:15.238Z,0
2017-03-14T04:28:25.824Z,0
2017-03-14T04:29:35.724Z,0
2017-03-14T04:30:46.005Z,0
2017-03-14T04:31:56.261Z,0
2017-03-14T04:33:06.603Z,0
2017-03-14T04:34:17.191Z,0
2017-03-14T04:35:27.037Z,0
2017-03-14T04:36:36.925Z,0
2017-03-14T04:37:47.397Z,0
2017-03-14T04:38:57.668Z,0
2017-03-14T04:40:08.158Z,0
2017-03-14T04:41:18.407Z,0
2017-03-14T04:42:28.666Z,0
2017-03-14T04:43:38.964Z,0
2017-03-14T04:44:49.411Z,0
2017-03-14T04:45:59.981Z,0
2017-03-14T04:47:09.825Z,0
2017-03-14T04:48:19.674Z,0
2017-03-14T04:49:29.975Z,0
2017-03-14T04:50:40.259Z,0
2017-03-14T04:51:50.738Z,0
2017-03-14T04:53:00.584Z,0
2017-03-14T04:54:10.895Z,0
2017-03-14T04:55:21.154Z,0
2017-03-14T04:56:31.469Z,0
2017-03-14T04:57:41.965Z,0
2017-03-14T04:58:52.244Z,0
2017-03-14T05:00:02.490Z,0
2017-03-14T05:01:12.429Z,0
2017-03-14T05:02:22.681Z,4
2017-03-14T05:03:33.295Z,4
2017-03-14T05:04:43.540Z,0
2017-03-14T05:05:53.818Z,4
2017-03-14T05:07:03.686Z,4
2017-03-14T05:08:13.999Z,4
2017-03-14T05:09:24.509Z,8
2017-03-14T05:10:34.763Z,8
2017-03-14T05:11:44.802Z,8
2017-03-14T05:12:55.052Z,12
2017-03-14T05:14:05.318Z,16
2017-03-14T05:15:15.829Z,20
2017-03-14T05:16:26.102Z,24
2017-03-14T05:17:36.380Z,32
2017-03-14T05:18:46.680Z,40
2017-03-14T05:19:56.952Z,48
2017-03-14T05:21:07.449Z,56
2017-03-14T05:22:17.804Z,68
2017-03-14T05:23:28.139Z,76
2017-03-14T05:24:38.086Z,92
2017-03-14T05:25:48.375Z,108
2017-03-14T05:26:58.976Z,116
2017-03-14T05:28:09.307Z,136
2017-03-14T05:29:19.218Z,160
2017-03-14T05:30:29.556Z,180
2017-03-14T05:31:39.835Z,196
2017-03-14T05:32:50.322Z,212
2017-03-14T05:34:00.656Z,228
2017-03-14T05:35:10.920Z,248
2017-03-14T05:36:21.339Z,272
2017-03-14T05:37:31.572Z,292
2017-03-14T05:38:41.691Z,320
2017-03-14T05:39:51.954Z,356
2017-03-14T05:41:02.237Z,392
2017-03-14T05:42:12.515Z,424
2017-03-14T05:43:22.812Z,472
2017-03-14T05:44:33.365Z,520
2017-03-14T05:45:43.688Z,572
2017-03-14T05:46:53.983Z,628
2017-03-14T05:48:04.277Z,668
2017-03-14T05:49:14.507Z,720
2017-03-14T05:50:56.385Z,788
2017-03-14T05:52:06.650Z,828
2017-03-14T05:53:16.956Z,868
2017-03-14T05:54:27.205Z,908
2017-03-14T05:55:37.725Z,948
2017-03-14T05:56:47.596Z,984
2017-03-14T05:57:57.862Z,1028
2017-03-14T05:59:08.104Z,1072
2017-03-14T06:00:18.385Z,1124
2017-03-14T06:01:28.483Z,1168
2017-03-14T06:02:38.831Z,1204
2017-03-14T06:03:49.125Z,1240
2017-03-14T06:04:59.028Z,1288
2017-03-14T06:06:09.287Z,1336
2017-03-14T06:07:19.385Z,1400
2017-03-14T06:08:29.898Z,1468
2017-03-14T06:09:40.143Z,1540
2017-03-14T06:10:50.146Z,1600
2017-03-14T06:12:00.416Z,1668
2017-03-14T06:13:10.939Z,1752
2017-03-14T06:14:21.192Z,1832
2017-03-14T06:15:31.452Z,1932
2017-03-14T06:16:41.303Z,2052
2017-03-14T06:17:51.590Z,2192
2017-03-14T06:19:02.111Z,2380
2017-03-14T06:20:12.361Z,2584
2017-03-14T06:21:22.600Z,2832
2017-03-14T06:22:33.014Z,3108
2017-03-14T06:23:43.330Z,3360
2017-03-14T06:24:53.834Z,3560
2017-03-14T06:26:04.185Z,3692
2017-03-14T06:27:14.426Z,3792
2017-03-14T06:28:24.706Z,3928
2017-03-14T06:29:35.097Z,4088
2017-03-14T06:30:45.665Z,4228
2017-03-14T06:31:56.006Z,4328
2017-03-14T06:33:06.525Z,4404
2017-03-14T06:34:16.778Z,4460
2017-03-14T06:35:26.293Z,4484
2017-03-14T06:36:36.782Z,4492
2017-03-14T06:37:47.033Z,4496
2017-03-14T06:38:57.328Z,4424
2017-03-14T06:40:07.661Z,4260
2017-03-14T06:41:17.896Z,3996
2017-03-14T06:42:28.101Z,3724
2017-03-14T06:43:38.404Z,3536
2017-03-14T06:44:48.690Z,3420
2017-03-14T06:45:58.535Z,3380
2017-03-14T06:47:09.065Z,3364
2017-03-14T06:48:19.622Z,3384
2017-03-14T06:49:29.910Z,3456
2017-03-14T06:50:40.201Z,3520
2017-03-14T06:51:50.448Z,3580
2017-03-14T06:53:00.844Z,3596
2017-03-14T06:54:11.373Z,3580
2017-03-14T06:55:21.260Z,3564
2017-03-14T06:56:31.517Z,3580
2017-03-14T06:57:41.409Z,3640
2017-03-14T06:58:51.698Z,3724
2017-03-14T07:00:02.208Z,3884
2017-03-14T07:01:12.541Z,4092
2017-03-14T07:02:22.841Z,4352
2017-03-14T07:03:33.407Z,4652
2017-03-14T07:04:43.664Z,4980
2017-03-14T07:05:54.207Z,5364
2017-03-14T07:07:04.461Z,5736
2017-03-14T07:08:14.745Z,5980
2017-03-14T07:09:25.017Z,6128
2017-03-14T07:10:35.481Z,6292
2017-03-14T07:11:46.591Z,6452
2017-03-14T07:12:56.911Z,6456
2017-03-14T07:14:07.215Z,6392
2017-03-14T07:15:17.099Z,6420
2017-03-14T07:16:27.342Z,6360
2017-03-14T07:17:37.881Z,6176
2017-03-14T07:18:48.246Z,5864
2017-03-14T07:19:58.544Z,5948
2017-03-14T07:21:08.834Z,6228
2017-03-14T07:22:19.163Z,6520
2017-03-14T07:23:29.757Z,6736
2017-03-14T07:24:40.033Z,7060
2017-03-14T07:25:50.304Z,7052
2017-03-14T07:27:00.152Z,6764
2017-03-14T07:28:10.029Z,6696
2017-03-14T07:29:20.604Z,6712
2017-03-14T07:30:30.492Z,6852
2017-03-14T07:31:40.342Z,6932
2017-03-14T07:32:50.820Z,7084
2017-03-14T07:34:00.681Z,7276
2017-03-14T07:35:11.172Z,7400
2017-03-14T07:36:21.489Z,7420
2017-03-14T07:37:31.857Z,7336
2017-03-14T07:38:41.757Z,7076
2017-03-14T07:39:52.047Z,6860
2017-03-14T07:41:02.569Z,6720
2017-03-14T07:42:12.928Z,6544
2017-03-14T07:43:22.808Z,6328
2017-03-14T07:44:33.160Z,6184
2017-03-14T07:45:43.014Z,6300
2017-03-14T07:46:53.170Z,6804
2017-03-14T07:48:03.555Z,7408
2017-03-14T07:49:13.808Z,8100
2017-03-14T07:50:23.303Z,8608
2017-03-14T07:51:33.588Z,8988
2017-03-14T07:52:44.113Z,9464
2017-03-14T07:53:54.362Z,10048
2017-03-14T07:55:04.689Z,11020
2017-03-14T07:56:15.024Z,11872
2017-03-14T07:57:25.427Z,13096
2017-03-14T07:58:35.930Z,14028
2017-03-14T07:59:46.171Z,14636
2017-03-14T08:00:56.072Z,14548
2017-03-14T08:02:06.503Z,15172
2017-03-14T08:03:16.960Z,15872
2017-03-14T08:04:27.501Z,16416
2017-03-14T08:05:37.812Z,17568
2017-03-14T08:06:48.114Z,19232
2017-03-14T08:07:57.946Z,22208
2017-03-14T08:09:08.975Z,44608
2017-03-14T08:10:20.181Z,28800
2017-03-14T08:11:31.235Z,32160
2017-03-14T08:12:42.151Z,26528
2017-03-14T08:13:53.070Z,16864
2017-03-14T08:15:03.384Z,16128
2017-03-14T08:16:13.473Z,16160
2017-03-14T08:17:23.326Z,15872
2017-03-14T08:18:33.645Z,16320
2017-03-14T08:19:43.534Z,16960
2017-03-14T08:20:53.782Z,16928
2017-03-14T08:22:04.292Z,17344
2017-03-14T08:23:14.545Z,18144
2017-03-14T08:24:24.806Z,19072
2017-03-14T08:25:35.307Z,19232
2017-03-14T08:26:45.575Z,20256
2017-03-14T08:27:56.116Z,21952
2017-03-14T08:29:06.445Z,22752
2017-03-14T08:30:16.313Z,17984
2017-03-14T08:31:26.602Z,17760
2017-03-14T08:32:36.833Z,17856
2017-03-14T08:33:47.424Z,17472
2017-03-14T08:34:57.732Z,16224
2017-03-14T08:36:07.998Z,14968
2017-03-14T08:37:18.238Z,13984
2017-03-14T08:38:28.747Z,13260
2017-03-14T08:39:39.264Z,12980
2017-03-14T08:40:49.542Z,13016
2017-03-14T08:41:59.805Z,12892
2017-03-14T08:43:10.076Z,12412
2017-03-14T08:44:20.366Z,11788
2017-03-14T08:45:31.149Z,11400
2017-03-14T08:46:41.445Z,11216
2017-03-14T08:47:51.700Z,11180
2017-03-14T08:49:02.032Z,11176
2017-03-14T08:50:12.282Z,11216
2017-03-14T08:51:22.828Z,11284
2017-03-14T08:52:33.195Z,11516
2017-03-14T08:53:43.464Z,12192
2017-03-14T08:54:53.725Z,13332
2017-03-14T08:56:03.973Z,14760
2017-03-14T08:57:14.081Z,16352
2017-03-14T08:58:24.314Z,17728
2017-03-14T08:59:34.570Z,18592
2017-03-14T09:00:44.852Z,19232
2017-03-14T09:01:55.144Z,20000
2017-03-14T09:03:05.753Z,18848
2017-03-14T09:04:15.647Z,18496
2017-03-14T09:05:25.516Z,18272
2017-03-14T09:06:35.772Z,18688
2017-03-14T09:07:46.031Z,20000
2017-03-14T09:08:56.845Z,21568
2017-03-14T09:10:06.730Z,22336
2017-03-14T09:11:17.014Z,26688
2017-03-14T09:12:26.864Z,26400
2017-03-14T09:13:37.137Z,23136
2017-03-14T09:14:47.648Z,22048
2017-03-14T09:15:57.538Z,21536
2017-03-14T09:17:08.044Z,20544
2017-03-14T09:18:17.921Z,21280
2017-03-14T09:19:28.252Z,27040
2017-03-14T09:20:38.828Z,22720
2017-03-14T09:21:49.095Z,22688
2017-03-14T09:22:59.339Z,25120
2017-03-14T09:24:09.834Z,21856
2017-03-14T09:25:20.405Z,20864
2017-03-14T09:26:30.925Z,19840
2017-03-14T09:27:41.278Z,21760
2017-03-14T09:28:51.553Z,29344
2017-03-14T09:30:01.844Z,23104
2017-03-14T09:31:12.207Z,29184
2017-03-14T09:32:22.725Z,26848
2017-03-14T09:33:33.791Z,39072
2017-03-14T09:34:44.766Z,64640
2017-03-14T09:35:55.801Z,72448
2017-03-14T09:37:06.349Z,46752
2017-03-14T09:38:16.767Z,44192
2017-03-14T09:39:27.716Z,46912
2017-03-14T09:40:38.262Z,47296
2017-03-14T09:41:49.228Z,50848
2017-03-14T09:42:59.743Z,59520
2017-03-14T09:44:10.964Z,50400
2017-03-14T09:45:21.889Z,43552
2017-03-14T09:46:32.853Z,39168
2017-03-14T09:47:43.802Z,64800
2017-03-14T09:48:54.773Z,71968
2017-03-14T09:50:05.979Z,81632
2017-03-14T09:51:16.918Z,91104
2017-03-14T09:52:27.862Z,97568
2017-03-14T09:53:38.869Z,83584
2017-03-14T09:54:49.459Z,99616
2017-03-14T09:56:00.255Z,79392
2017-03-14T09:57:11.225Z,48544
2017-03-14T09:58:22.258Z,43360
2017-03-14T09:59:33.278Z,41984
2017-03-14T10:00:43.816Z,56384
2017-03-14T10:01:55.007Z,88992
2017-03-14T10:03:05.974Z,51424
2017-03-14T10:04:17.104Z,57280
2017-03-14T10:05:27.772Z,48224
2017-03-14T10:06:38.358Z,46752
2017-03-14T10:07:49.587Z,41504
2017-03-14T10:09:00.121Z,83200
2017-03-14T10:10:10.713Z,41216
2017-03-14T10:11:21.215Z,75072
2017-03-14T10:12:32.271Z,73216
2017-03-14T10:13:43.603Z,75872
2017-03-14T10:14:54.691Z,81088
2017-03-14T10:16:05.669Z,78432
2017-03-14T10:17:16.610Z,105952
2017-03-14T10:18:27.185Z,99456
2017-03-14T10:19:38.387Z,72640
2017-03-14T10:20:48.867Z,86528
2017-03-14T10:21:59.917Z,85920
2017-03-14T10:23:10.349Z,70016
2017-03-14T10:24:20.868Z,77120
2017-03-14T10:25:31.622Z,81504
2017-03-14T10:26:41.830Z,73472
2017-03-14T10:27:52.351Z,64896
2017-03-14T10:29:02.582Z,83104
2017-03-14T10:30:13.463Z,78944
2017-03-14T10:31:23.966Z,92608
2017-03-14T10:32:35.536Z,102720
2017-03-14T10:33:46.119Z,79712
2017-03-14T10:34:56.658Z,79520
2017-03-14T10:36:07.278Z,85856
2017-03-14T10:37:18.064Z,71744
2017-03-14T10:38:28.590Z,75840
2017-03-14T10:39:39.160Z,101248
2017-03-14T10:40:49.757Z,78560
2017-03-14T10:41:59.695Z,82848
2017-03-14T10:43:10.613Z,114560
2017-03-14T10:44:22.141Z,102912
2017-03-14T10:45:32.342Z,75072
2017-03-14T10:46:42.845Z,94080
2017-03-14T10:47:53.440Z,121504
2017-03-14T10:49:04.253Z,87968
2017-03-14T10:50:14.992Z,78208
2017-03-14T10:51:25.319Z,95936
2017-03-14T10:52:35.920Z,78784
2017-03-14T10:53:46.490Z,69344
2017-03-14T10:54:57.407Z,87616
2017-03-14T10:56:07.672Z,83840
2017-03-14T10:57:17.930Z,70560
2017-03-14T10:58:28.464Z,78592
2017-03-14T10:59:38.981Z,78560
2017-03-14T11:00:49.805Z,87872
2017-03-14T11:02:00.391Z,32480
2017-03-14T11:03:10.326Z,25152
2017-03-14T11:04:20.578Z,23136
2017-03-14T11:05:31.196Z,22368
2017-03-14T11:06:42.025Z,22080
2017-03-14T11:07:52.565Z,21568
2017-03-14T11:09:03.145Z,20768
2017-03-14T11:10:12.707Z,20032
2017-03-14T11:11:22.653Z,19456
2017-03-14T11:12:32.842Z,18944
2017-03-14T11:13:42.779Z,19424
2017-03-14T11:14:52.791Z,19168
2017-03-14T11:16:02.397Z,18944
2017-03-14T11:17:12.481Z,19840
2017-03-14T11:18:22.695Z,20448
2017-03-14T11:19:32.706Z,21568
2017-03-14T11:20:42.640Z,22240
2017-03-14T11:21:52.562Z,22144
2017-03-14T11:23:02.663Z,20608
2017-03-14T11:24:12.856Z,19264
2017-03-14T11:25:22.880Z,19488
2017-03-14T11:26:32.876Z,20288
2017-03-14T11:27:42.852Z,20384
2017-03-14T11:28:52.807Z,19552
2017-03-14T11:30:02.989Z,18528
2017-03-14T11:31:12.952Z,17600
2017-03-14T11:32:22.970Z,17088
2017-03-14T11:33:32.903Z,17120
2017-03-14T11:34:42.869Z,17152
2017-03-14T11:35:53.108Z,17696
2017-03-14T11:37:03.083Z,18176
2017-03-14T11:38:13.070Z,17792
2017-03-14T11:39:22.669Z,17184
2017-03-14T11:40:32.899Z,17184
2017-03-14T11:41:43.104Z,18112
2017-03-14T11:42:53.087Z,18656
2017-03-14T11:44:03.063Z,18752
2017-03-14T11:45:13.064Z,20160
2017-03-14T11:46:23.027Z,20800
2017-03-14T11:47:33.374Z,20352
2017-03-14T11:48:43.301Z,20256
2017-03-14T11:49:53.331Z,20864
2017-03-14T11:51:02.914Z,22208
2017-03-14T11:52:12.875Z,21472
2017-03-14T11:53:23.057Z,21344
2017-03-14T11:54:32.989Z,21792
2017-03-14T11:55:42.336Z,23296
2017-03-14T11:56:51.985Z,23552
2017-03-14T11:58:01.993Z,23712
2017-03-14T11:59:12.187Z,24032
2017-03-14T12:00:22.114Z,24256
2017-03-14T12:01:32.060Z,24128
2017-03-14T12:02:41.756Z,25056
2017-03-14T12:03:51.770Z,27168
2017-03-14T12:05:02.050Z,29824
2017-03-14T12:06:12.000Z,32608
2017-03-14T12:07:21.950Z,29888
2017-03-14T12:08:31.945Z,26624
2017-03-14T12:09:41.888Z,27264
2017-03-14T12:10:51.828Z,27456
2017-03-14T12:12:01.779Z,26752
2017-03-14T12:13:11.531Z,30272
2017-03-14T12:14:21.202Z,34912
2017-03-14T12:15:31.404Z,32288
2017-03-14T12:16:41.629Z,30560
2017-03-14T12:17:51.596Z,26112
2017-03-14T12:19:01.554Z,23456
2017-03-14T12:20:11.484Z,22368
2017-03-14T12:21:21.104Z,20032
2017-03-14T12:22:31.280Z,21184
2017-03-14T12:23:41.231Z,21376
2017-03-14T12:24:51.233Z,26720
2017-03-14T12:26:01.191Z,29568
2017-03-14T12:27:10.833Z,31488
2017-03-14T12:28:21.024Z,39232
2017-03-14T12:29:30.960Z,34720
2017-03-14T12:30:40.850Z,40864
2017-03-14T12:31:50.572Z,45408
2017-03-14T12:33:00.569Z,44096
2017-03-14T12:34:10.834Z,42688
2017-03-14T12:35:20.817Z,43872
2017-03-14T12:36:30.746Z,38624
2017-03-14T12:37:41.001Z,29888
2017-03-14T12:38:51.023Z,28576
2017-03-14T12:40:01.347Z,27424
2017-03-14T12:41:11.286Z,25088
2017-03-14T12:42:20.566Z,25248
2017-03-14T12:43:30.556Z,23616
2017-03-14T12:44:40.506Z,23808
2017-03-14T12:45:50.749Z,24256
2017-03-14T12:47:00.665Z,24608
2017-03-14T12:48:10.679Z,23104
2017-03-14T12:49:20.615Z,20672
2017-03-14T12:50:30.621Z,19456
2017-03-14T12:51:40.860Z,17792
2017-03-14T12:52:50.934Z,16832
2017-03-14T12:54:00.909Z,16512
2017-03-14T12:55:10.860Z,16704
2017-03-14T12:56:20.781Z,16000
2017-03-14T12:57:30.984Z,14476
2017-03-14T12:58:40.965Z,13540
2017-03-14T12:59:50.931Z,12336
2017-03-14T13:01:00.875Z,11556
2017-03-14T13:02:10.845Z,12644
2017-03-14T13:03:21.038Z,14240
2017-03-14T13:04:31.065Z,14568
2017-03-14T13:05:41.035Z,13888
2017-03-14T13:06:51.011Z,13340
2017-03-14T13:08:00.966Z,11928
2017-03-14T13:09:11.189Z,11176
2017-03-14T13:10:21.282Z,11476
2017-03-14T13:11:31.258Z,11972
2017-03-14T13:12:41.222Z,12528
2017-03-14T13:13:51.296Z,12892
2017-03-14T13:15:01.527Z,13096
2017-03-14T13:16:11.146Z,12596
2017-03-14T13:17:21.133Z,13296
2017-03-14T13:18:31.071Z,14764
2017-03-14T13:19:41.012Z,15780
2017-03-14T13:20:51.201Z,15496
2017-03-14T13:22:00.867Z,16288
2017-03-14T13:23:10.836Z,16512
2017-03-14T13:24:20.775Z,15248
2017-03-14T13:25:30.734Z,15124
2017-03-14T13:26:40.922Z,16064
2017-03-14T13:27:51.065Z,15552
2017-03-14T13:29:00.983Z,17856
2017-03-14T13:30:10.935Z,17472
2017-03-14T13:31:20.879Z,20192
2017-03-14T13:32:31.090Z,20512
2017-03-14T13:33:41.075Z,20736
2017-03-14T13:34:51.151Z,24000
2017-03-14T13:36:01.172Z,23392
2017-03-14T13:37:11.132Z,27200
2017-03-14T13:38:21.372Z,30304
2017-03-14T13:39:31.311Z,35712
2017-03-14T13:40:41.232Z,30496
2017-03-14T13:41:51.251Z,31584
2017-03-14T13:43:01.262Z,37728
2017-03-14T13:44:11.511Z,37696
2017-03-14T13:45:21.636Z,35744
2017-03-14T13:46:31.617Z,37408
2017-03-14T13:47:41.647Z,30016
2017-03-14T13:48:51.650Z,25856
2017-03-14T13:50:01.882Z,23360
2017-03-14T13:51:11.943Z,20928
2017-03-14T13:52:21.877Z,19296
2017-03-14T13:53:31.838Z,19200
2017-03-14T13:54:41.827Z,22976
2017-03-14T13:55:52.080Z,24672
2017-03-14T13:57:02.039Z,23392
2017-03-14T13:58:12.026Z,24064
2017-03-14T13:59:22.004Z,22880
2017-03-14T14:00:31.987Z,23488
2017-03-14T14:01:42.339Z,25088
2017-03-14T14:02:55.373Z,24992
2017-03-14T14:14:03.699Z,25792
2017-03-14T14:15:13.360Z,23008
2017-03-14T14:16:23.297Z,21536
2017-03-14T14:17:33.280Z,19968
2017-03-14T14:18:42.979Z,19424
2017-03-14T14:19:53.147Z,20224
2017-03-14T14:21:02.818Z,23424
2017-03-14T14:22:13.129Z,45760
2017-03-14T14:23:22.806Z,47360
2017-03-14T14:24:32.792Z,53632
2017-03-14T14:25:43.005Z,58848
2017-03-14T14:26:52.969Z,52704
2017-03-14T14:28:03.036Z,41312
2017-03-14T14:29:12.981Z,47392
2017-03-14T14:30:22.974Z,45856
2017-03-14T14:31:33.256Z,48736
2017-03-14T14:32:43.288Z,49440
2017-03-14T14:33:52.908Z,42912
2017-03-14T14:35:02.850Z,43392
2017-03-14T14:36:12.772Z,44768
2017-03-14T14:37:23.203Z,40160
2017-03-14T14:38:33.133Z,41344
2017-03-14T14:39:43.064Z,41408
2017-03-14T14:40:52.736Z,36992
2017-03-14T14:42:02.689Z,35840
2017-03-14T14:43:12.860Z,28000
2017-03-14T14:44:22.851Z,31232
2017-03-14T14:45:32.884Z,33536
2017-03-14T14:46:42.924Z,28928
2017-03-14T14:47:52.909Z,23808
2017-03-14T14:49:03.168Z,24896
2017-03-14T14:50:13.121Z,18176
2017-03-14T14:51:23.057Z,20736
2017-03-14T14:52:33.199Z,19232
2017-03-14T14:53:42.839Z,15256
2017-03-14T14:54:53.103Z,12756
2017-03-14T14:56:03.027Z,16800
2017-03-14T14:57:12.958Z,17600
2017-03-14T14:58:22.949Z,16896
2017-03-14T14:59:32.904Z,22336
2017-03-14T15:00:43.292Z,25184
2017-03-14T15:01:53.394Z,27488
2017-03-14T15:03:03.330Z,25792
2017-03-14T15:04:13.307Z,25120
2017-03-14T15:05:23.439Z,29536
2017-03-14T15:06:33.643Z,24480
2017-03-14T15:07:43.275Z,24448
2017-03-14T15:08:52.912Z,24928
2017-03-14T15:10:02.908Z,25248
2017-03-14T15:11:12.866Z,30016
2017-03-14T15:12:23.093Z,27872
2017-03-14T15:13:33.174Z,26848
2017-03-14T15:14:43.104Z,27136
2017-03-14T15:15:53.095Z,24256
2017-03-14T15:17:03.105Z,21728
2017-03-14T15:18:13.284Z,22464
2017-03-14T15:19:23.216Z,23456
2017-03-14T15:20:33.151Z,22976
2017-03-14T15:21:42.860Z,22752
2017-03-14T15:22:52.850Z,21664
2017-03-14T15:24:03.041Z,21088
2017-03-14T15:25:13.012Z,19712
2017-03-14T15:26:22.971Z,19328
2017-03-14T15:27:33.051Z,18688
2017-03-14T15:28:43.096Z,16608
2017-03-14T15:29:53.283Z,14528
2017-03-14T15:31:03.410Z,12156
2017-03-14T15:32:13.425Z,11764
2017-03-14T15:33:23.058Z,11032
2017-03-14T15:34:32.809Z,9352
2017-03-14T15:35:43.030Z,9112
2017-03-14T15:36:52.996Z,9552
2017-03-14T15:38:03.041Z,10388
2017-03-14T15:39:13.078Z,11396
2017-03-14T15:40:23.007Z,11304
2017-03-14T15:41:33.249Z,11056
2017-03-14T15:42:43.238Z,11224
2017-03-14T15:43:53.252Z,10784
2017-03-14T15:45:02.919Z,10212
2017-03-14T15:46:12.868Z,12140
2017-03-14T15:47:22.713Z,12812
2017-03-14T15:48:32.707Z,10804
2017-03-14T15:49:42.341Z,9780
2017-03-14T15:50:52.001Z,9720
2017-03-14T15:52:01.971Z,10152
2017-03-14T15:53:12.154Z,9472
2017-03-14T15:54:21.802Z,7876
2017-03-14T15:55:31.755Z,7076
2017-03-14T15:56:41.731Z,6716
2017-03-14T15:57:51.693Z,6460
2017-03-14T15:59:01.871Z,6224
2017-03-14T16:00:11.793Z,5964
2017-03-14T16:01:21.770Z,5732
2017-03-14T16:02:31.192Z,5564